sensor_id;sensor_type;location;lat;lon;timestamp;temperature;humidity
47520;DHT22;33252;48.122;11.538;2022-09-03T00:07:45;15.50;96.00
47520;DHT22;33252;48.122;11.538;2022-09-03T00:10:19;15.50;96.30
47520;DHT22;33252;48.122;11.538;2022-09-03T00:12:50;15.40;96.20
47520;DHT22;33252;48.122;11.538;2022-09-03T00:15:19;15.50;96.20
47520;DHT22;33252;48.122;11.538;2022-09-03T00:18:14;15.50;96.20
47520;DHT22;33252;48.122;11.538;2022-09-03T00:20:53;15.40;96.80
47520;DHT22;33252;48.122;11.538;2022-09-03T00:23:25;15.40;96.60
47520;DHT22;33252;48.122;11.538;2022-09-03T00:26:13;15.40;96.60
47520;DHT22;33252;48.122;11.538;2022-09-03T00:28:55;15.30;96.70
47520;DHT22;33252;48.122;11.538;2022-09-03T00:31:50;15.10;96.70
47520;DHT22;33252;48.122;11.538;2022-09-03T00:34:35;15.10;97.20
47520;DHT22;33252;48.122;11.538;2022-09-03T00:37:04;15.10;96.90
47520;DHT22;33252;48.122;11.538;2022-09-03T00:39:29;14.90;97.40
47520;DHT22;33252;48.122;11.538;2022-09-03T00:48:07;14.90;97.90
47520;DHT22;33252;48.122;11.538;2022-09-03T00:56:03;15.10;97.10
47520;DHT22;33252;48.122;11.538;2022-09-03T00:59:01;15.10;97.40
47520;DHT22;33252;48.122;11.538;2022-09-03T01:01:54;15.10;97.20
47520;DHT22;33252;48.122;11.538;2022-09-03T01:13:19;14.80;98.40
47520;DHT22;33252;48.122;11.538;2022-09-03T01:21:28;14.80;98.40
47520;DHT22;33252;48.122;11.538;2022-09-03T01:27:18;15.00;98.00
47520;DHT22;33252;48.122;11.538;2022-09-03T01:30:16;14.90;98.20
47520;DHT22;33252;48.122;11.538;2022-09-03T01:35:42;14.70;98.80
47520;DHT22;33252;48.122;11.538;2022-09-03T01:39:02;14.60;99.40
47520;DHT22;33252;48.122;11.538;2022-09-03T01:41:27;14.60;99.30
47520;DHT22;33252;48.122;11.538;2022-09-03T01:53:12;14.60;99.40
47520;DHT22;33252;48.122;11.538;2022-09-03T01:58:49;14.30;99.90
47520;DHT22;33252;48.122;11.538;2022-09-03T02:01:30;14.20;99.90
47520;DHT22;33252;48.122;11.538;2022-09-03T02:03:58;14.30;99.90
47520;DHT22;33252;48.122;11.538;2022-09-03T02:06:28;14.60;99.90
47520;DHT22;33252;48.122;11.538;2022-09-03T02:08:58;14.30;99.90
47520;DHT22;33252;48.122;11.538;2022-09-03T02:11:23;14.10;99.90
47520;DHT22;33252;48.122;11.538;2022-09-03T02:13:52;14.10;99.90
47520;DHT22;33252;48.122;11.538;2022-09-03T02:16:22;14.10;99.90
47520;DHT22;33252;48.122;11.538;2022-09-03T02:18:53;14.00;99.90
47520;DHT22;33252;48.122;11.538;2022-09-03T02:21:21;14.00;99.90
47520;DHT22;33252;48.122;11.538;2022-09-03T02:23:47;14.00;99.90
47520;DHT22;33252;48.122;11.538;2022-09-03T02:26:17;14.00;99.90
47520;DHT22;33252;48.122;11.538;2022-09-03T02:28:43;14.00;99.90
47520;DHT22;33252;48.122;11.538;2022-09-03T02:31:09;13.90;99.90
47520;DHT22;33252;48.122;11.538;2022-09-03T02:33:39;13.90;99.90
47520;DHT22;33252;48.122;11.538;2022-09-03T02:36:10;14.00;99.90
47520;DHT22;33252;48.122;11.538;2022-09-03T02:38:36;14.10;99.90
47520;DHT22;33252;48.122;11.538;2022-09-03T02:41:02;14.00;99.90
47520;DHT22;33252;48.122;11.538;2022-09-03T02:43:38;14.00;99.90
47520;DHT22;33252;48.122;11.538;2022-09-03T02:46:08;13.90;99.90
47520;DHT22;33252;48.122;11.538;2022-09-03T02:48:34;13.90;99.90
47520;DHT22;33252;48.122;11.538;2022-09-03T02:51:00;13.90;99.90
47520;DHT22;33252;48.122;11.538;2022-09-03T02:53:26;13.90;99.90
47520;DHT22;33252;48.122;11.538;2022-09-03T02:55:58;13.90;99.90
47520;DHT22;33252;48.122;11.538;2022-09-03T02:58:24;13.80;99.90
47520;DHT22;33252;48.122;11.538;2022-09-03T03:00:50;13.80;99.90
47520;DHT22;33252;48.122;11.538;2022-09-03T03:03:16;13.80;99.90
47520;DHT22;33252;48.122;11.538;2022-09-03T03:08:11;13.70;99.90
47520;DHT22;33252;48.122;11.538;2022-09-03T03:10:40;13.70;99.90
47520;DHT22;33252;48.122;11.538;2022-09-03T03:13:06;13.70;99.90
47520;DHT22;33252;48.122;11.538;2022-09-03T03:15:32;13.80;99.90
47520;DHT22;33252;48.122;11.538;2022-09-03T03:17:58;13.90;99.90
47520;DHT22;33252;48.122;11.538;2022-09-03T03:20:24;13.80;99.90
47520;DHT22;33252;48.122;11.538;2022-09-03T03:22:49;13.70;99.90
47520;DHT22;33252;48.122;11.538;2022-09-03T03:25:15;13.60;99.90
47520;DHT22;33252;48.122;11.538;2022-09-03T03:27:41;13.50;99.90
47520;DHT22;33252;48.122;11.538;2022-09-03T03:30:09;13.50;99.90
47520;DHT22;33252;48.122;11.538;2022-09-03T03:32:38;13.50;99.90
47520;DHT22;33252;48.122;11.538;2022-09-03T03:35:05;13.50;99.90
47520;DHT22;33252;48.122;11.538;2022-09-03T03:37:33;13.50;99.90
47520;DHT22;33252;48.122;11.538;2022-09-03T03:39:59;13.60;99.90
47520;DHT22;33252;48.122;11.538;2022-09-03T03:42:25;13.60;99.90
47520;DHT22;33252;48.122;11.538;2022-09-03T03:44:51;13.50;99.90
47520;DHT22;33252;48.122;11.538;2022-09-03T03:47:16;13.40;99.90
47520;DHT22;33252;48.122;11.538;2022-09-03T03:49:43;13.50;99.90
47520;DHT22;33252;48.122;11.538;2022-09-03T03:52:08;13.60;99.90
47520;DHT22;33252;48.122;11.538;2022-09-03T03:54:34;13.60;99.90
47520;DHT22;33252;48.122;11.538;2022-09-03T03:57:00;13.40;99.90
47520;DHT22;33252;48.122;11.538;2022-09-03T03:59:25;13.40;99.90
47520;DHT22;33252;48.122;11.538;2022-09-03T04:01:53;13.40;99.90
47520;DHT22;33252;48.122;11.538;2022-09-03T04:04:19;13.40;99.90
47520;DHT22;33252;48.122;11.538;2022-09-03T04:06:44;13.40;99.90
47520;DHT22;33252;48.122;11.538;2022-09-03T04:09:10;13.40;99.90
47520;DHT22;33252;48.122;11.538;2022-09-03T04:11:36;13.40;99.90
47520;DHT22;33252;48.122;11.538;2022-09-03T04:14:02;13.50;99.90
47520;DHT22;33252;48.122;11.538;2022-09-03T04:16:28;13.50;99.90
47520;DHT22;33252;48.122;11.538;2022-09-03T04:18:55;13.50;99.90
47520;DHT22;33252;48.122;11.538;2022-09-03T04:21:25;13.50;99.90
47520;DHT22;33252;48.122;11.538;2022-09-03T04:23:52;13.60;99.90
47520;DHT22;33252;48.122;11.538;2022-09-03T04:26:23;13.50;99.90
47520;DHT22;33252;48.122;11.538;2022-09-03T04:28:49;13.50;99.90
47520;DHT22;33252;48.122;11.538;2022-09-03T04:31:19;13.60;99.90
47520;DHT22;33252;48.122;11.538;2022-09-03T04:33:45;13.60;99.90
47520;DHT22;33252;48.122;11.538;2022-09-03T04:36:13;13.60;99.90
47520;DHT22;33252;48.122;11.538;2022-09-03T04:38:41;13.60;99.90
47520;DHT22;33252;48.122;11.538;2022-09-03T04:41:08;13.60;99.90
47520;DHT22;33252;48.122;11.538;2022-09-03T04:43:34;13.60;99.90
47520;DHT22;33252;48.122;11.538;2022-09-03T04:46:02;13.60;99.90
47520;DHT22;33252;48.122;11.538;2022-09-03T04:48:30;13.70;99.90
47520;DHT22;33252;48.122;11.538;2022-09-03T04:51:05;13.80;99.90
47520;DHT22;33252;48.122;11.538;2022-09-03T04:53:39;13.80;99.90
47520;DHT22;33252;48.122;11.538;2022-09-03T04:56:12;13.60;99.90
47520;DHT22;33252;48.122;11.538;2022-09-03T04:58:39;13.70;99.90
47520;DHT22;33252;48.122;11.538;2022-09-03T05:01:09;13.80;99.90
47520;DHT22;33252;48.122;11.538;2022-09-03T05:03:36;13.70;99.90
47520;DHT22;33252;48.122;11.538;2022-09-03T05:06:02;13.90;99.90
47520;DHT22;33252;48.122;11.538;2022-09-03T05:08:31;13.90;99.90
47520;DHT22;33252;48.122;11.538;2022-09-03T05:11:00;14.00;99.90
47520;DHT22;33252;48.122;11.538;2022-09-03T05:13:26;14.10;99.90
47520;DHT22;33252;48.122;11.538;2022-09-03T05:15:59;14.20;99.90
47520;DHT22;33252;48.122;11.538;2022-09-03T05:18:25;14.20;99.90
47520;DHT22;33252;48.122;11.538;2022-09-03T05:21:01;14.20;99.90
47520;DHT22;33252;48.122;11.538;2022-09-03T05:23:27;14.10;99.90
47520;DHT22;33252;48.122;11.538;2022-09-03T05:25:59;14.20;99.90
47520;DHT22;33252;48.122;11.538;2022-09-03T05:28:26;14.10;99.90
47520;DHT22;33252;48.122;11.538;2022-09-03T05:31:07;14.20;99.90
47520;DHT22;33252;48.122;11.538;2022-09-03T05:33:46;14.30;99.90
47520;DHT22;33252;48.122;11.538;2022-09-03T05:36:14;14.20;99.90
47520;DHT22;33252;48.122;11.538;2022-09-03T05:38:41;14.30;99.90
47520;DHT22;33252;48.122;11.538;2022-09-03T05:41:08;14.40;99.90
47520;DHT22;33252;48.122;11.538;2022-09-03T05:43:35;14.40;99.90
47520;DHT22;33252;48.122;11.538;2022-09-03T05:46:07;14.40;99.90
47520;DHT22;33252;48.122;11.538;2022-09-03T05:48:34;14.60;99.90
47520;DHT22;33252;48.122;11.538;2022-09-03T05:51:12;14.70;99.90
47520;DHT22;33252;48.122;11.538;2022-09-03T05:53:42;14.80;99.90
47520;DHT22;33252;48.122;11.538;2022-09-03T05:56:10;14.80;99.90
47520;DHT22;33252;48.122;11.538;2022-09-03T05:58:41;14.80;99.90
47520;DHT22;33252;48.122;11.538;2022-09-03T06:03:40;15.00;99.90
47520;DHT22;33252;48.122;11.538;2022-09-03T06:06:06;15.00;99.90
47520;DHT22;33252;48.122;11.538;2022-09-03T06:08:33;15.10;99.90
47520;DHT22;33252;48.122;11.538;2022-09-03T06:11:00;15.10;99.90
47520;DHT22;33252;48.122;11.538;2022-09-03T06:13:26;15.10;99.90
47520;DHT22;33252;48.122;11.538;2022-09-03T06:15:59;15.20;99.90
47520;DHT22;33252;48.122;11.538;2022-09-03T06:18:26;15.30;99.90
47520;DHT22;33252;48.122;11.538;2022-09-03T06:20:57;15.20;99.90
47520;DHT22;33252;48.122;11.538;2022-09-03T06:23:23;15.40;99.90
47520;DHT22;33252;48.122;11.538;2022-09-03T06:26:18;15.40;99.90
47520;DHT22;33252;48.122;11.538;2022-09-03T06:28:45;15.40;99.90
47520;DHT22;33252;48.122;11.538;2022-09-03T06:31:15;15.30;99.90
47520;DHT22;33252;48.122;11.538;2022-09-03T06:33:42;15.40;99.90
47520;DHT22;33252;48.122;11.538;2022-09-03T06:36:13;15.40;99.90
47520;DHT22;33252;48.122;11.538;2022-09-03T06:38:40;15.30;99.90
47520;DHT22;33252;48.122;11.538;2022-09-03T06:41:15;15.40;99.90
47520;DHT22;33252;48.122;11.538;2022-09-03T06:44:01;15.40;99.90
47520;DHT22;33252;48.122;11.538;2022-09-03T06:46:29;15.50;99.90
47520;DHT22;33252;48.122;11.538;2022-09-03T06:48:55;15.70;99.90
47520;DHT22;33252;48.122;11.538;2022-09-03T06:51:23;15.70;99.90
47520;DHT22;33252;48.122;11.538;2022-09-03T06:53:52;15.60;99.90
47520;DHT22;33252;48.122;11.538;2022-09-03T06:56:21;15.50;99.90
47520;DHT22;33252;48.122;11.538;2022-09-03T06:58:52;15.50;99.90
47520;DHT22;33252;48.122;11.538;2022-09-03T07:01:20;15.50;99.90
47520;DHT22;33252;48.122;11.538;2022-09-03T07:03:51;15.40;99.90
47520;DHT22;33252;48.122;11.538;2022-09-03T07:06:18;15.40;99.90
47520;DHT22;33252;48.122;11.538;2022-09-03T07:08:45;15.50;99.90
47520;DHT22;33252;48.122;11.538;2022-09-03T07:11:13;15.30;99.90
47520;DHT22;33252;48.122;11.538;2022-09-03T07:13:45;15.30;99.90
47520;DHT22;33252;48.122;11.538;2022-09-03T07:16:14;15.30;99.90
47520;DHT22;33252;48.122;11.538;2022-09-03T07:18:40;15.30;99.90
47520;DHT22;33252;48.122;11.538;2022-09-03T07:21:10;15.30;99.90
47520;DHT22;33252;48.122;11.538;2022-09-03T07:23:37;15.30;99.90
47520;DHT22;33252;48.122;11.538;2022-09-03T07:26:15;15.30;99.90
47520;DHT22;33252;48.122;11.538;2022-09-03T07:28:42;15.30;99.90
47520;DHT22;33252;48.122;11.538;2022-09-03T07:31:12;15.20;99.90
47520;DHT22;33252;48.122;11.538;2022-09-03T07:33:43;15.20;99.90
47520;DHT22;33252;48.122;11.538;2022-09-03T07:36:11;15.20;99.90
47520;DHT22;33252;48.122;11.538;2022-09-03T07:38:39;15.20;99.90
47520;DHT22;33252;48.122;11.538;2022-09-03T07:41:06;15.20;99.90
47520;DHT22;33252;48.122;11.538;2022-09-03T07:43:37;15.10;99.90
47520;DHT22;33252;48.122;11.538;2022-09-03T07:46:05;15.20;99.90
47520;DHT22;33252;48.122;11.538;2022-09-03T07:48:31;15.30;99.90
47520;DHT22;33252;48.122;11.538;2022-09-03T07:50:58;15.20;99.90
47520;DHT22;33252;48.122;11.538;2022-09-03T07:53:26;15.20;99.90
47520;DHT22;33252;48.122;11.538;2022-09-03T07:55:53;15.10;99.90
47520;DHT22;33252;48.122;11.538;2022-09-03T07:58:19;15.20;99.90
47520;DHT22;33252;48.122;11.538;2022-09-03T08:00:49;15.30;99.90
47520;DHT22;33252;48.122;11.538;2022-09-03T08:03:15;15.30;99.90
47520;DHT22;33252;48.122;11.538;2022-09-03T08:05:41;15.20;99.90
47520;DHT22;33252;48.122;11.538;2022-09-03T08:08:06;15.20;99.90
47520;DHT22;33252;48.122;11.538;2022-09-03T08:10:36;15.30;99.90
47520;DHT22;33252;48.122;11.538;2022-09-03T08:13:02;15.40;99.90
47520;DHT22;33252;48.122;11.538;2022-09-03T08:15:32;15.60;99.90
47520;DHT22;33252;48.122;11.538;2022-09-03T08:17:59;15.70;99.90
47520;DHT22;33252;48.122;11.538;2022-09-03T08:20:26;15.80;99.90
47520;DHT22;33252;48.122;11.538;2022-09-03T08:22:52;16.00;99.90
47520;DHT22;33252;48.122;11.538;2022-09-03T08:25:18;16.10;99.90
47520;DHT22;33252;48.122;11.538;2022-09-03T08:27:43;16.10;99.90
47520;DHT22;33252;48.122;11.538;2022-09-03T08:30:09;16.40;99.90
47520;DHT22;33252;48.122;11.538;2022-09-03T08:32:39;16.40;99.90
47520;DHT22;33252;48.122;11.538;2022-09-03T08:35:05;16.60;99.90
47520;DHT22;33252;48.122;11.538;2022-09-03T08:37:32;16.60;99.90
47520;DHT22;33252;48.122;11.538;2022-09-03T08:39:58;16.80;99.90
47520;DHT22;33252;48.122;11.538;2022-09-03T08:42:51;16.80;99.90
47520;DHT22;33252;48.122;11.538;2022-09-03T08:45:21;17.00;99.90
47520;DHT22;33252;48.122;11.538;2022-09-03T08:47:57;17.10;99.90
47520;DHT22;33252;48.122;11.538;2022-09-03T08:50:31;17.20;99.90
47520;DHT22;33252;48.122;11.538;2022-09-03T08:53:16;17.20;99.90
47520;DHT22;33252;48.122;11.538;2022-09-03T08:55:52;17.30;99.90
47520;DHT22;33252;48.122;11.538;2022-09-03T08:58:25;17.20;99.90
47520;DHT22;33252;48.122;11.538;2022-09-03T09:09:14;17.90;99.90
47520;DHT22;33252;48.122;11.538;2022-09-03T09:11:55;18.20;99.90
47520;DHT22;33252;48.122;11.538;2022-09-03T09:17:32;18.20;99.90
47520;DHT22;33252;48.122;11.538;2022-09-03T09:20:21;18.40;99.90
47520;DHT22;33252;48.122;11.538;2022-09-03T09:23:03;18.50;99.90
47520;DHT22;33252;48.122;11.538;2022-09-03T09:25:31;18.70;99.90
47520;DHT22;33252;48.122;11.538;2022-09-03T09:28:21;18.80;99.90
47520;DHT22;33252;48.122;11.538;2022-09-03T09:30:49;18.90;99.90
47520;DHT22;33252;48.122;11.538;2022-09-03T09:33:17;19.00;99.90
47520;DHT22;33252;48.122;11.538;2022-09-03T09:35:43;18.90;99.90
47520;DHT22;33252;48.122;11.538;2022-09-03T09:38:09;19.00;99.90
47520;DHT22;33252;48.122;11.538;2022-09-03T09:40:41;19.10;99.90
47520;DHT22;33252;48.122;11.538;2022-09-03T09:43:14;19.20;99.90
47520;DHT22;33252;48.122;11.538;2022-09-03T09:45:48;19.30;99.90
47520;DHT22;33252;48.122;11.538;2022-09-03T09:48:31;19.50;99.90
47520;DHT22;33252;48.122;11.538;2022-09-03T09:51:11;19.60;99.90
47520;DHT22;33252;48.122;11.538;2022-09-03T09:53:39;19.80;99.90
47520;DHT22;33252;48.122;11.538;2022-09-03T09:56:05;19.90;99.90
47520;DHT22;33252;48.122;11.538;2022-09-03T09:58:33;19.90;99.90
47520;DHT22;33252;48.122;11.538;2022-09-03T10:01:22;19.90;99.90
47520;DHT22;33252;48.122;11.538;2022-09-03T10:03:56;20.00;99.90
47520;DHT22;33252;48.122;11.538;2022-09-03T10:06:27;19.90;99.90
47520;DHT22;33252;48.122;11.538;2022-09-03T10:09:18;19.80;99.90
47520;DHT22;33252;48.122;11.538;2022-09-03T10:12:11;19.90;99.90
47520;DHT22;33252;48.122;11.538;2022-09-03T10:14:58;20.00;99.90
47520;DHT22;33252;48.122;11.538;2022-09-03T10:23:24;20.10;99.90
47520;DHT22;33252;48.122;11.538;2022-09-03T10:26:02;20.30;99.90
47520;DHT22;33252;48.122;11.538;2022-09-03T10:28:34;20.40;99.90
47520;DHT22;33252;48.122;11.538;2022-09-03T10:39:48;20.90;99.90
47520;DHT22;33252;48.122;11.538;2022-09-03T10:45:18;21.00;99.90
47520;DHT22;33252;48.122;11.538;2022-09-03T10:48:15;21.00;99.90
47520;DHT22;33252;48.122;11.538;2022-09-03T10:50:51;21.20;99.90
47520;DHT22;33252;48.122;11.538;2022-09-03T10:53:29;21.40;99.90
47520;DHT22;33252;48.122;11.538;2022-09-03T10:59:27;21.70;99.90
47520;DHT22;33252;48.122;11.538;2022-09-03T11:07:06;21.90;99.90
47520;DHT22;33252;48.122;11.538;2022-09-03T11:15:05;21.50;99.90
47520;DHT22;33252;48.122;11.538;2022-09-03T11:17:39;21.70;99.90
47520;DHT22;33252;48.122;11.538;2022-09-03T11:22:36;21.90;99.90
47520;DHT22;33252;48.122;11.538;2022-09-03T11:25:04;21.90;99.90
47520;DHT22;33252;48.122;11.538;2022-09-03T11:30:12;22.00;99.90
47520;DHT22;33252;48.122;11.538;2022-09-03T11:35:39;21.70;99.80
47520;DHT22;33252;48.122;11.538;2022-09-03T11:43:29;21.60;99.20
47520;DHT22;33252;48.122;11.538;2022-09-03T11:46:10;21.80;99.90
47520;DHT22;33252;48.122;11.538;2022-09-03T11:48:38;22.10;99.10
47520;DHT22;33252;48.122;11.538;2022-09-03T11:53:53;22.20;99.90
47520;DHT22;33252;48.122;11.538;2022-09-03T11:56:19;22.10;98.20
47520;DHT22;33252;48.122;11.538;2022-09-03T11:58:45;22.00;99.90
47520;DHT22;33252;48.122;11.538;2022-09-03T12:01:13;22.10;98.80
47520;DHT22;33252;48.122;11.538;2022-09-03T12:03:50;22.10;99.80
47520;DHT22;33252;48.122;11.538;2022-09-03T12:12:08;22.10;98.70
47520;DHT22;33252;48.122;11.538;2022-09-03T12:15:13;22.20;97.30
47520;DHT22;33252;48.122;11.538;2022-09-03T12:18:02;22.30;98.30
47520;DHT22;33252;48.122;11.538;2022-09-03T12:20:47;22.40;98.30
47520;DHT22;33252;48.122;11.538;2022-09-03T12:23:48;22.80;98.40
47520;DHT22;33252;48.122;11.538;2022-09-03T12:26:17;23.10;96.80
47520;DHT22;33252;48.122;11.538;2022-09-03T12:28:49;23.10;97.10
47520;DHT22;33252;48.122;11.538;2022-09-03T12:31:19;23.10;96.30
47520;DHT22;33252;48.122;11.538;2022-09-03T12:33:55;23.10;96.00
47520;DHT22;33252;48.122;11.538;2022-09-03T12:36:24;23.20;95.90
47520;DHT22;33252;48.122;11.538;2022-09-03T12:38:50;23.40;96.50
47520;DHT22;33252;48.122;11.538;2022-09-03T12:41:25;23.70;95.80
47520;DHT22;33252;48.122;11.538;2022-09-03T12:43:57;23.80;95.00
47520;DHT22;33252;48.122;11.538;2022-09-03T12:46:27;24.30;95.20
47520;DHT22;33252;48.122;11.538;2022-09-03T12:48:58;24.70;94.60
47520;DHT22;33252;48.122;11.538;2022-09-03T12:51:38;24.90;93.40
47520;DHT22;33252;48.122;11.538;2022-09-03T12:54:05;25.10;92.60
47520;DHT22;33252;48.122;11.538;2022-09-03T12:56:34;25.50;93.50
47520;DHT22;33252;48.122;11.538;2022-09-03T12:59:09;26.30;92.30
47520;DHT22;33252;48.122;11.538;2022-09-03T13:01:50;26.10;91.50
47520;DHT22;33252;48.122;11.538;2022-09-03T13:04:20;25.50;91.80
47520;DHT22;33252;48.122;11.538;2022-09-03T13:07:11;25.50;93.40
47520;DHT22;33252;48.122;11.538;2022-09-03T13:14:49;26.70;91.50
47520;DHT22;33252;48.122;11.538;2022-09-03T13:23:31;25.30;93.50
47520;DHT22;33252;48.122;11.538;2022-09-03T13:29:13;29.00;85.20
47520;DHT22;33252;48.122;11.538;2022-09-03T13:31:49;27.30;88.80
47520;DHT22;33252;48.122;11.538;2022-09-03T13:34:38;26.70;92.00
47520;DHT22;33252;48.122;11.538;2022-09-03T13:40:17;27.10;88.60
47520;DHT22;33252;48.122;11.538;2022-09-03T13:42:34;26.00;91.20
47520;DHT22;33252;48.122;11.538;2022-09-03T13:47:42;24.50;93.30
47520;DHT22;33252;48.122;11.538;2022-09-03T13:50:38;24.00;93.00
47520;DHT22;33252;48.122;11.538;2022-09-03T13:56:04;23.40;94.40
47520;DHT22;33252;48.122;11.538;2022-09-03T13:58:41;23.30;95.20
47520;DHT22;33252;48.122;11.538;2022-09-03T14:01:34;23.10;94.70
47520;DHT22;33252;48.122;11.538;2022-09-03T14:04:13;23.10;94.40
47520;DHT22;33252;48.122;11.538;2022-09-03T14:06:48;23.00;94.60
47520;DHT22;33252;48.122;11.538;2022-09-03T14:12:04;22.70;94.00
47520;DHT22;33252;48.122;11.538;2022-09-03T14:20:57;22.30;96.50
47520;DHT22;33252;48.122;11.538;2022-09-03T14:26:04;22.30;95.50
47520;DHT22;33252;48.122;11.538;2022-09-03T14:28:37;21.80;97.40
47520;DHT22;33252;48.122;11.538;2022-09-03T14:40:13;14.50;99.90
47520;DHT22;33252;48.122;11.538;2022-09-03T14:51:26;15.40;99.90
47520;DHT22;33252;48.122;11.538;2022-09-03T14:56:31;15.40;99.90
47520;DHT22;33252;48.122;11.538;2022-09-03T14:59:12;15.50;99.90
47520;DHT22;33252;48.122;11.538;2022-09-03T15:01:41;15.70;99.90
47520;DHT22;33252;48.122;11.538;2022-09-03T15:07:29;15.90;99.90
47520;DHT22;33252;48.122;11.538;2022-09-03T15:15:12;15.50;99.90
47520;DHT22;33252;48.122;11.538;2022-09-03T15:20:31;15.50;99.90
47520;DHT22;33252;48.122;11.538;2022-09-03T15:29:09;15.70;99.90
47520;DHT22;33252;48.122;11.538;2022-09-03T15:36:57;15.40;99.90
47520;DHT22;33252;48.122;11.538;2022-09-03T15:39:32;15.50;99.90
47520;DHT22;33252;48.122;11.538;2022-09-03T15:42:03;15.40;99.90
47520;DHT22;33252;48.122;11.538;2022-09-03T15:44:42;15.30;99.90
47520;DHT22;33252;48.122;11.538;2022-09-03T15:50:01;15.40;99.90
47520;DHT22;33252;48.122;11.538;2022-09-03T16:00:30;15.70;99.90
47520;DHT22;33252;48.122;11.538;2022-09-03T16:03:11;15.50;99.90
47520;DHT22;33252;48.122;11.538;2022-09-03T16:06:06;15.30;99.90
47520;DHT22;33252;48.122;11.538;2022-09-03T16:08:58;15.40;99.90
47520;DHT22;33252;48.122;11.538;2022-09-03T16:14:22;15.80;99.90
47520;DHT22;33252;48.122;11.538;2022-09-03T16:17:17;16.10;99.90
47520;DHT22;33252;48.122;11.538;2022-09-03T16:20:06;16.10;99.90
47520;DHT22;33252;48.122;11.538;2022-09-03T16:25:28;16.10;99.90
47520;DHT22;33252;48.122;11.538;2022-09-03T16:28:27;16.00;99.90
47520;DHT22;33252;48.122;11.538;2022-09-03T16:31:19;16.00;99.90
47520;DHT22;33252;48.122;11.538;2022-09-03T16:39:28;15.90;99.90
47520;DHT22;33252;48.122;11.538;2022-09-03T16:42:05;15.90;99.90
47520;DHT22;33252;48.122;11.538;2022-09-03T16:48:06;15.60;99.90
47520;DHT22;33252;48.122;11.538;2022-09-03T17:21:26;15.60;99.90
47520;DHT22;33252;48.122;11.538;2022-09-03T17:26:52;15.60;99.90
47520;DHT22;33252;48.122;11.538;2022-09-03T17:44:06;15.20;99.90
47520;DHT22;33252;48.122;11.538;2022-09-03T17:46:46;15.30;99.90
47520;DHT22;33252;48.122;11.538;2022-09-03T17:49:33;15.10;99.90
47520;DHT22;33252;48.122;11.538;2022-09-03T17:52:32;15.00;99.90
47520;DHT22;33252;48.122;11.538;2022-09-03T17:54:58;15.10;99.90
47520;DHT22;33252;48.122;11.538;2022-09-03T17:57:37;14.90;99.90
47520;DHT22;33252;48.122;11.538;2022-09-03T18:00:10;15.00;99.90
47520;DHT22;33252;48.122;11.538;2022-09-03T18:02:54;14.90;99.90
47520;DHT22;33252;48.122;11.538;2022-09-03T18:05:41;14.80;99.90
47520;DHT22;33252;48.122;11.538;2022-09-03T18:08:18;14.80;99.90
47520;DHT22;33252;48.122;11.538;2022-09-03T18:11:25;14.70;99.90
47520;DHT22;33252;48.122;11.538;2022-09-03T18:14:39;14.70;99.90
47520;DHT22;33252;48.122;11.538;2022-09-03T18:17:27;14.70;99.90
47520;DHT22;33252;48.122;11.538;2022-09-03T18:19:43;14.70;99.90
47520;DHT22;33252;48.122;11.538;2022-09-03T18:22:45;14.60;99.90
47520;DHT22;33252;48.122;11.538;2022-09-03T18:25:32;14.60;99.90
47520;DHT22;33252;48.122;11.538;2022-09-03T18:28:22;14.50;99.90
47520;DHT22;33252;48.122;11.538;2022-09-03T18:31:12;14.40;99.90
47520;DHT22;33252;48.122;11.538;2022-09-03T18:33:58;14.40;99.90
47520;DHT22;33252;48.122;11.538;2022-09-03T18:36:42;14.40;99.90
47520;DHT22;33252;48.122;11.538;2022-09-03T18:39:27;14.40;99.90
47520;DHT22;33252;48.122;11.538;2022-09-03T18:42:21;14.30;99.90
47520;DHT22;33252;48.122;11.538;2022-09-03T18:48:53;15.50;99.90
47520;DHT22;33252;48.122;11.538;2022-09-03T18:51:50;15.40;99.90
47520;DHT22;33252;48.122;11.538;2022-09-03T18:57:54;15.30;99.90
47520;DHT22;33252;48.122;11.538;2022-09-03T19:08:07;15.20;99.90
47520;DHT22;33252;48.122;11.538;2022-09-03T19:13:53;15.00;99.90
47520;DHT22;33252;48.122;11.538;2022-09-03T19:17:03;15.00;99.90
47520;DHT22;33252;48.122;11.538;2022-09-03T19:20:12;15.00;99.90
47520;DHT22;33252;48.122;11.538;2022-09-03T19:22:57;15.00;99.90
47520;DHT22;33252;48.122;11.538;2022-09-03T19:25:41;14.90;99.90
47520;DHT22;33252;48.122;11.538;2022-09-03T19:28:29;15.00;99.90
47520;DHT22;33252;48.122;11.538;2022-09-03T19:31:34;14.90;99.90
47520;DHT22;33252;48.122;11.538;2022-09-03T19:38:03;14.80;99.90
47520;DHT22;33252;48.122;11.538;2022-09-03T19:47:06;14.70;99.90
47520;DHT22;33252;48.122;11.538;2022-09-03T19:55:57;14.60;99.90
47520;DHT22;33252;48.122;11.538;2022-09-03T19:59:05;14.70;99.90
47520;DHT22;33252;48.122;11.538;2022-09-03T20:01:54;14.70;99.90
47520;DHT22;33252;48.122;11.538;2022-09-03T20:04:58;14.60;99.90
47520;DHT22;33252;48.122;11.538;2022-09-03T20:07:45;14.60;99.90
47520;DHT22;33252;48.122;11.538;2022-09-03T20:10:30;14.50;99.90
47520;DHT22;33252;48.122;11.538;2022-09-03T20:13:14;14.60;99.90
47520;DHT22;33252;48.122;11.538;2022-09-03T20:23:59;14.50;99.90
47520;DHT22;33252;48.122;11.538;2022-09-03T20:29:28;14.40;99.90
47520;DHT22;33252;48.122;11.538;2022-09-03T20:34:59;14.40;99.90
47520;DHT22;33252;48.122;11.538;2022-09-03T20:37:40;14.40;99.90
47520;DHT22;33252;48.122;11.538;2022-09-03T20:51:41;14.30;99.90
47520;DHT22;33252;48.122;11.538;2022-09-03T20:54:13;14.30;99.90
47520;DHT22;33252;48.122;11.538;2022-09-03T21:05:30;14.20;99.90
47520;DHT22;33252;48.122;11.538;2022-09-03T21:10:51;14.20;99.90
47520;DHT22;33252;48.122;11.538;2022-09-03T21:25:00;14.10;99.90
47520;DHT22;33252;48.122;11.538;2022-09-03T21:27:38;14.10;99.90
47520;DHT22;33252;48.122;11.538;2022-09-03T21:30:07;14.10;99.90
47520;DHT22;33252;48.122;11.538;2022-09-03T21:33:05;14.10;99.90
47520;DHT22;33252;48.122;11.538;2022-09-03T21:38:32;14.10;99.90
47520;DHT22;33252;48.122;11.538;2022-09-03T21:49:13;14.20;99.90
47520;DHT22;33252;48.122;11.538;2022-09-03T21:54:31;14.20;99.90
47520;DHT22;33252;48.122;11.538;2022-09-03T21:57:06;14.20;99.90
47520;DHT22;33252;48.122;11.538;2022-09-03T22:04:51;14.30;99.90
47520;DHT22;33252;48.122;11.538;2022-09-03T22:13:27;14.30;99.90
47520;DHT22;33252;48.122;11.538;2022-09-03T22:18:47;14.20;99.90
47520;DHT22;33252;48.122;11.538;2022-09-03T22:21:18;14.10;99.90